createdAt,value
2022-08-23T00:00:12.981Z,22.19
2022-08-23T00:02:43.505Z,22.21
2022-08-23T00:05:12.469Z,22.26
2022-08-23T00:07:41.428Z,22.31
2022-08-23T00:10:12.447Z,22.24
2022-08-23T00:12:41.216Z,22.24
2022-08-23T00:15:12.066Z,22.19
2022-08-23T00:17:42.369Z,22.22
2022-08-23T00:20:17.329Z,22.24
2022-08-23T00:22:45.718Z,22.22
2022-08-23T00:25:15.457Z,22.23
2022-08-23T00:27:44.225Z,22.20
2022-08-23T00:30:14.960Z,22.20
2022-08-23T00:32:43.876Z,22.16
2022-08-23T00:35:26.253Z,22.20
2022-08-23T00:38:32.072Z,22.16
2022-08-23T00:40:47.436Z,22.18
2022-08-23T00:43:35.918Z,22.18
2022-08-23T00:46:38.016Z,22.13
2022-08-23T00:49:10.131Z,22.13
2022-08-23T00:51:53.280Z,22.05
2022-08-23T00:54:23.437Z,22.03
2022-08-23T00:56:52.866Z,22.02
2022-08-23T00:59:21.046Z,21.96
2022-08-23T01:01:49.350Z,21.86
2022-08-23T01:04:18.514Z,21.72
2022-08-23T01:06:55.818Z,21.78
2022-08-23T01:09:24.432Z,21.86
2022-08-23T01:11:57.726Z,21.91
2022-08-23T01:14:31.027Z,21.86
2022-08-23T01:17:05.671Z,21.85
2022-08-23T01:19:37.378Z,21.67
2022-08-23T01:22:13.633Z,21.70
2022-08-23T01:25:08.191Z,21.54
2022-08-23T01:27:32.226Z,21.55
2022-08-23T01:30:01.582Z,21.65
2022-08-23T01:32:30.046Z,21.67
2022-08-23T01:34:58.066Z,21.72
2022-08-23T01:37:26.151Z,21.72
2022-08-23T01:39:55.537Z,21.72
2022-08-23T01:42:23.542Z,21.71
2022-08-23T01:44:52.049Z,21.70
2022-08-23T01:47:20.491Z,21.69
2022-08-23T01:49:48.591Z,21.71
2022-08-23T01:52:17.365Z,21.66
2022-08-23T01:54:45.617Z,21.64
2022-08-23T01:57:15.401Z,21.61
2022-08-23T01:59:45.551Z,21.55
2022-08-23T02:02:13.556Z,21.54
2022-08-23T02:04:41.561Z,21.47
2022-08-23T02:07:09.732Z,21.51
2022-08-23T02:09:38.084Z,21.54
2022-08-23T02:12:07.554Z,21.52
2022-08-23T02:14:42.170Z,21.39
2022-08-23T02:17:10.446Z,21.37
2022-08-23T02:19:39.602Z,21.44
2022-08-23T02:22:09.449Z,21.48
2022-08-23T02:24:41.954Z,21.48
2022-08-23T02:27:10.238Z,21.51
2022-08-23T02:29:40.509Z,21.39
2022-08-23T02:32:14.025Z,21.39
2022-08-23T02:34:43.895Z,21.37
2022-08-23T02:37:13.914Z,21.27
2022-08-23T02:39:43.661Z,21.12
2022-08-23T02:42:12.635Z,20.85
2022-08-23T02:44:42.266Z,20.91
2022-08-23T02:47:12.070Z,20.81
2022-08-23T02:49:40.113Z,20.72
2022-08-23T02:52:08.599Z,20.73
2022-08-23T02:54:37.782Z,20.73
2022-08-23T02:57:06.471Z,20.70
2022-08-23T02:59:35.490Z,20.68
2022-08-23T03:02:05.065Z,20.86
2022-08-23T03:04:33.155Z,20.83
2022-08-23T03:07:01.358Z,20.91
2022-08-23T03:09:29.529Z,20.92
2022-08-23T03:11:57.555Z,20.98
2022-08-23T03:14:27.615Z,20.90
2022-08-23T03:16:57.445Z,20.94
2022-08-23T03:19:27.838Z,21.00
2022-08-23T03:21:56.023Z,21.05
2022-08-23T03:24:24.263Z,21.08
2022-08-23T03:26:52.457Z,21.10
2022-08-23T03:29:20.734Z,21.11
2022-08-23T03:31:48.750Z,21.07
2022-08-23T03:34:16.956Z,21.13
2022-08-23T03:36:46.546Z,21.16
2022-08-23T03:39:15.059Z,21.20
2022-08-23T03:41:43.511Z,21.19
2022-08-23T03:44:11.561Z,21.04
2022-08-23T03:46:39.676Z,21.03
2022-08-23T03:49:08.213Z,21.15
2022-08-23T03:51:36.531Z,21.19
2022-08-23T03:54:07.457Z,21.26
2022-08-23T03:56:38.838Z,21.27
2022-08-23T03:59:13.166Z,21.35
2022-08-23T04:01:41.496Z,21.38
2022-08-23T04:04:09.577Z,21.45
2022-08-23T04:06:38.581Z,21.13
2022-08-23T04:09:08.020Z,21.55
2022-08-23T04:11:36.144Z,21.54
2022-08-23T04:14:04.639Z,21.65
2022-08-23T04:16:37.527Z,21.63
2022-08-23T04:19:06.126Z,21.70
2022-08-23T04:21:39.310Z,21.69
2022-08-23T04:24:09.021Z,21.75
2022-08-23T04:26:37.242Z,21.82
2022-08-23T04:29:05.968Z,21.86
2022-08-23T04:31:37.149Z,21.95
2022-08-23T04:34:08.479Z,22.01
2022-08-23T04:36:39.811Z,22.08
2022-08-23T04:39:10.318Z,22.09
2022-08-23T04:41:55.579Z,22.14
2022-08-23T04:44:23.785Z,22.12
2022-08-23T04:46:52.173Z,22.22
2022-08-23T04:49:24.499Z,22.32
2022-08-23T04:51:53.837Z,22.30
2022-08-23T04:54:24.627Z,22.33
2022-08-23T04:56:53.078Z,22.37
2022-08-23T04:59:21.354Z,22.52
2022-08-23T05:01:50.375Z,22.64
2022-08-23T05:04:19.190Z,22.75
2022-08-23T05:06:47.222Z,22.72
2022-08-23T05:09:20.313Z,22.85
2022-08-23T05:11:50.077Z,22.99
2022-08-23T05:14:18.234Z,23.17
2022-08-23T05:16:46.387Z,23.31
2022-08-23T05:19:14.738Z,23.39
2022-08-23T05:21:42.873Z,23.53
2022-08-23T05:24:13.533Z,23.58
2022-08-23T05:26:42.819Z,23.64
2022-08-23T05:29:12.362Z,23.97
2022-08-23T05:31:40.516Z,23.53
2022-08-23T05:34:08.670Z,23.65
2022-08-23T05:36:37.829Z,23.49
2022-08-23T05:39:21.168Z,23.74
2022-08-23T05:42:00.866Z,24.08
2022-08-23T05:44:30.639Z,24.25
2022-08-23T05:47:04.638Z,24.42
2022-08-23T05:49:38.672Z,24.67
2022-08-23T05:52:07.506Z,24.81
2022-08-23T05:54:36.662Z,24.95
2022-08-23T05:57:05.427Z,25.02
2022-08-23T05:59:34.950Z,25.03
2022-08-23T06:02:03.180Z,25.11
2022-08-23T06:04:31.496Z,25.28
2022-08-23T06:06:59.559Z,25.36
2022-08-23T06:09:28.076Z,25.22
2022-08-23T06:11:56.111Z,25.43
2022-08-23T06:14:24.244Z,25.43
2022-08-23T06:16:56.083Z,25.54
2022-08-23T06:19:25.073Z,25.55
2022-08-23T06:21:53.813Z,25.72
2022-08-23T06:24:22.067Z,25.88
2022-08-23T06:26:50.246Z,26.05
2022-08-23T06:29:20.626Z,26.16
2022-08-23T06:31:52.023Z,26.30
2022-08-23T06:34:24.136Z,26.53
2022-08-23T06:36:55.329Z,26.50
2022-08-23T06:39:27.322Z,26.78
2022-08-23T06:42:00.850Z,26.92
2022-08-23T06:44:30.002Z,26.77
2022-08-23T06:46:58.347Z,26.90
2022-08-23T06:49:28.831Z,26.92
2022-08-23T06:52:00.156Z,26.91
2022-08-23T06:54:32.866Z,27.24
2022-08-23T06:57:02.382Z,27.32
2022-08-23T06:59:31.299Z,27.56
2022-08-23T07:02:01.700Z,27.78
2022-08-23T07:04:33.202Z,27.65
2022-08-23T07:07:02.576Z,27.84
2022-08-23T07:09:31.606Z,27.96
2022-08-23T07:12:00.296Z,28.15
2022-08-23T07:14:29.452Z,28.11
2022-08-23T07:17:01.363Z,28.33
2022-08-23T07:19:34.161Z,28.48
2022-08-23T07:22:04.422Z,28.46
2022-08-23T07:24:33.766Z,28.44
2022-08-23T07:27:06.531Z,28.59
2022-08-23T07:29:34.904Z,28.70
2022-08-23T07:32:03.100Z,28.70
2022-08-23T07:34:33.238Z,28.88
2022-08-23T07:37:01.725Z,28.66
2022-08-23T07:39:31.841Z,28.94
2022-08-23T07:42:01.319Z,28.96
2022-08-23T07:44:44.754Z,28.89
2022-08-23T07:47:14.576Z,29.03
2022-08-23T07:49:43.999Z,29.41
2022-08-23T07:52:12.170Z,29.64
2022-08-23T07:54:40.740Z,29.85
2022-08-23T07:57:13.872Z,29.94
2022-08-23T07:59:42.094Z,30.04
2022-08-23T08:02:10.380Z,30.17
2022-08-23T08:04:38.969Z,29.76
2022-08-23T08:07:19.240Z,30.28
2022-08-23T08:09:48.913Z,30.45
2022-08-23T08:12:17.677Z,30.29
2022-08-23T08:14:47.054Z,30.43
2022-08-23T08:17:15.175Z,30.28
2022-08-23T08:19:43.205Z,30.31
2022-08-23T08:22:13.240Z,30.40
2022-08-23T08:24:41.778Z,30.33
2022-08-23T08:27:09.845Z,29.80
2022-08-23T08:29:37.985Z,30.34
2022-08-23T08:32:06.332Z,30.51
2022-08-23T08:34:34.417Z,30.69
2022-08-23T08:37:02.643Z,30.82
2022-08-23T08:39:34.064Z,30.53
2022-08-23T08:42:19.254Z,30.81
2022-08-23T08:44:50.998Z,31.13
2022-08-23T08:47:30.832Z,31.10
2022-08-23T08:50:04.011Z,31.53
2022-08-23T08:52:36.898Z,31.44
2022-08-23T08:55:08.841Z,31.45
2022-08-23T08:57:41.200Z,31.66
2022-08-23T09:00:13.715Z,31.53
2022-08-23T09:02:42.930Z,31.73
2022-08-23T09:05:14.813Z,31.96
2022-08-23T09:07:53.510Z,32.16
2022-08-23T09:10:52.159Z,31.54
2022-08-23T09:13:56.126Z,31.57
2022-08-23T09:16:39.521Z,31.59
2022-08-23T09:19:08.136Z,32.01
2022-08-23T09:21:45.180Z,31.49
2022-08-23T09:24:14.428Z,31.33
2022-08-23T09:26:46.000Z,31.15
2022-08-23T09:29:21.106Z,31.22
2022-08-23T09:31:52.758Z,31.53
2022-08-23T09:34:24.182Z,31.63
2022-08-23T09:36:52.500Z,31.84
2022-08-23T09:39:31.222Z,32.13
2022-08-23T09:42:01.742Z,31.89
2022-08-23T09:44:37.450Z,31.60
2022-08-23T09:47:13.042Z,31.43
2022-08-23T09:49:43.786Z,31.71
2022-08-23T09:52:22.147Z,31.55
2022-08-23T09:55:03.176Z,31.54
2022-08-23T09:57:35.717Z,31.80
2022-08-23T10:00:23.432Z,31.85
2022-08-23T10:02:51.640Z,31.57
2022-08-23T10:05:22.064Z,31.49
2022-08-23T10:07:57.078Z,31.53
2022-08-23T10:10:32.937Z,31.91
2022-08-23T10:13:03.472Z,32.03
2022-08-23T10:15:49.463Z,31.74
2022-08-23T10:18:26.303Z,31.36
2022-08-23T10:21:03.094Z,31.62
2022-08-23T10:23:44.909Z,31.80
2022-08-23T10:26:23.183Z,31.91
2022-08-23T10:29:17.508Z,32.00
2022-08-23T10:31:59.182Z,32.08
2022-08-23T10:34:40.977Z,32.14
2022-08-23T10:37:24.219Z,32.35
2022-08-23T10:40:04.009Z,32.28
2022-08-23T10:42:40.372Z,32.19
2022-08-23T10:45:17.331Z,31.98
2022-08-23T10:48:00.135Z,32.02
2022-08-23T10:50:33.547Z,32.07
2022-08-23T10:53:09.526Z,31.74
2022-08-23T10:55:55.156Z,31.92
2022-08-23T10:58:29.240Z,31.84
2022-08-23T11:01:02.013Z,31.74
2022-08-23T11:03:33.235Z,31.81
2022-08-23T11:06:28.877Z,32.10
2022-08-23T11:09:03.710Z,32.01
2022-08-23T11:11:43.345Z,31.92
2022-08-23T11:14:14.275Z,31.90
2022-08-23T11:16:48.750Z,31.47
2022-08-23T11:19:51.677Z,31.18
2022-08-23T11:22:21.183Z,31.43
2022-08-23T11:24:58.957Z,31.59
2022-08-23T11:27:32.362Z,31.78
2022-08-23T11:30:38.993Z,31.86
2022-08-23T11:33:17.871Z,31.97
2022-08-23T11:35:50.278Z,32.01
2022-08-23T11:38:39.169Z,32.19
2022-08-23T11:41:23.625Z,31.84
2022-08-23T11:44:25.886Z,31.71
2022-08-23T11:47:04.786Z,31.58
2022-08-23T11:50:08.768Z,31.45
2022-08-23T11:53:03.761Z,31.42
2022-08-23T11:55:54.625Z,31.19
2022-08-23T11:58:31.986Z,31.26
2022-08-23T12:01:12.150Z,31.58
2022-08-23T12:03:57.011Z,31.87
2022-08-23T12:06:41.572Z,32.03
2022-08-23T12:09:37.305Z,32.03
2022-08-23T12:12:24.388Z,31.99
2022-08-23T12:14:55.930Z,31.70
2022-08-23T12:17:57.064Z,31.70
2022-08-23T12:20:32.737Z,31.72
2022-08-23T12:23:15.337Z,31.84
2022-08-23T12:25:45.166Z,31.82
2022-08-23T12:28:32.705Z,31.68
2022-08-23T12:31:13.427Z,31.49
2022-08-23T12:33:52.417Z,31.56
2022-08-23T12:36:30.322Z,31.69
2022-08-23T12:39:04.969Z,31.72
2022-08-23T12:41:45.549Z,31.82
2022-08-23T12:44:19.603Z,31.93
2022-08-23T12:46:48.407Z,31.70
2022-08-23T12:49:26.202Z,31.62
2022-08-23T12:51:57.094Z,31.52
2022-08-23T12:54:37.803Z,31.57
2022-08-23T12:57:12.019Z,31.50
2022-08-23T12:59:48.587Z,31.51
2022-08-23T13:02:29.483Z,31.55
2022-08-23T13:05:02.982Z,31.53
2022-08-23T13:07:32.446Z,31.47
2022-08-23T13:10:00.744Z,31.40
2022-08-23T13:12:30.431Z,31.37
2022-08-23T13:15:01.785Z,31.07
2022-08-23T13:17:36.964Z,31.32
2022-08-23T13:20:22.129Z,31.32
2022-08-23T13:23:02.641Z,31.18
2022-08-23T13:25:34.416Z,31.28
2022-08-23T13:28:07.463Z,31.28
2022-08-23T13:30:38.237Z,31.28
2022-08-23T13:33:21.142Z,31.38
2022-08-23T13:35:50.695Z,31.12
2022-08-23T13:38:24.715Z,31.15
2022-08-23T13:41:02.184Z,30.81
2022-08-23T13:43:37.394Z,31.00
2022-08-23T13:46:18.125Z,31.03
2022-08-23T13:48:55.802Z,31.08
2022-08-23T13:51:31.533Z,31.10
2022-08-23T13:54:03.356Z,30.96
2022-08-23T13:56:35.743Z,30.88
2022-08-23T13:59:20.906Z,30.88
2022-08-23T14:01:49.406Z,30.74
2022-08-23T14:04:17.907Z,30.69
2022-08-23T14:06:49.047Z,30.57
2022-08-23T14:09:17.770Z,29.91
2022-08-23T14:11:48.305Z,29.27
2022-08-23T14:14:18.874Z,27.93
2022-08-23T14:16:47.045Z,27.16
2022-08-23T14:19:16.769Z,26.69
2022-08-23T14:22:03.530Z,25.26
2022-08-23T14:24:32.171Z,24.48
2022-08-23T14:27:01.662Z,24.09
2022-08-23T14:29:31.685Z,24.24
2022-08-23T14:32:01.115Z,24.35
2022-08-23T14:34:30.558Z,24.20
2022-08-23T14:39:48.724Z,23.89
2022-08-23T14:42:20.635Z,23.71
2022-08-23T14:44:51.151Z,23.26
2022-08-23T14:47:20.266Z,23.66
2022-08-23T14:49:53.279Z,23.06
2022-08-23T14:52:22.317Z,23.50
2022-08-23T14:54:51.038Z,22.78
2022-08-23T14:57:19.935Z,21.68
2022-08-23T14:59:50.323Z,21.51
2022-08-23T15:02:24.249Z,21.75
2022-08-23T15:04:52.826Z,21.57
2022-08-23T15:07:21.439Z,21.80
2022-08-23T15:09:51.741Z,21.78
2022-08-23T15:15:14.751Z,21.69
2022-08-23T15:17:48.712Z,21.97
2022-08-23T15:20:17.565Z,22.02
2022-08-23T15:22:55.476Z,22.16
2022-08-23T15:25:25.362Z,22.26
2022-08-23T15:27:54.243Z,22.52
2022-08-23T15:30:25.205Z,22.49
2022-08-23T15:32:56.667Z,22.62
2022-08-23T15:35:26.800Z,22.65
2022-08-23T15:37:56.511Z,22.71
2022-08-23T15:40:26.199Z,22.78
2022-08-23T15:42:54.496Z,22.61
2022-08-23T15:45:24.430Z,22.57
2022-08-23T15:47:55.073Z,22.47
2022-08-23T15:50:26.869Z,22.44
2022-08-23T15:52:55.899Z,22.44
2022-08-23T15:55:24.309Z,22.58
2022-08-23T15:57:54.608Z,22.63
2022-08-23T16:00:25.156Z,22.74
2022-08-23T16:03:18.944Z,22.89
2022-08-23T16:05:44.619Z,22.91
2022-08-23T16:08:18.683Z,23.00
2022-08-23T16:10:47.234Z,23.12
2022-08-23T16:13:15.657Z,23.27
2022-08-23T16:15:45.502Z,23.32
2022-08-23T16:18:14.086Z,23.43
2022-08-23T16:20:42.735Z,23.40
2022-08-23T16:23:11.156Z,23.39
2022-08-23T16:25:41.551Z,23.52
2022-08-23T16:28:09.990Z,23.60
2022-08-23T16:30:38.257Z,23.61
2022-08-23T16:33:08.257Z,23.61
2022-08-23T16:35:36.372Z,23.70
2022-08-23T16:38:04.925Z,23.78
2022-08-23T16:40:33.518Z,23.84
2022-08-23T16:43:01.933Z,23.87
2022-08-23T16:45:30.213Z,23.90
2022-08-23T16:47:58.342Z,23.86
2022-08-23T16:50:29.169Z,23.77
2022-08-23T16:52:57.298Z,23.60
2022-08-23T16:55:25.653Z,23.68
2022-08-23T16:57:54.093Z,23.76
2022-08-23T17:00:22.388Z,23.03
2022-08-23T17:02:50.851Z,23.05
2022-08-23T17:05:20.991Z,22.92
2022-08-23T17:07:54.176Z,22.87
2022-08-23T17:10:23.628Z,22.61
2022-08-23T17:12:54.299Z,22.35
2022-08-23T17:15:26.589Z,22.10
2022-08-23T17:17:56.232Z,21.98
2022-08-23T17:20:27.604Z,21.19
2022-08-23T17:22:58.599Z,21.21
2022-08-23T17:25:27.590Z,20.46
2022-08-23T17:27:56.974Z,20.65
2022-08-23T17:30:26.669Z,20.87
2022-08-23T17:32:55.271Z,20.64
2022-08-23T17:35:33.952Z,20.96
2022-08-23T17:38:04.878Z,21.10
2022-08-23T17:40:36.801Z,21.05
2022-08-23T17:43:06.381Z,20.84
2022-08-23T17:45:40.750Z,20.96
2022-08-23T17:48:09.072Z,21.21
2022-08-23T17:50:38.219Z,21.13
2022-08-23T17:53:08.614Z,21.14
2022-08-23T17:55:37.575Z,21.08
2022-08-23T17:58:06.688Z,21.16
2022-08-23T18:00:36.450Z,21.05
2022-08-23T18:03:06.066Z,21.11
2022-08-23T18:05:35.597Z,21.19
2022-08-23T18:08:04.057Z,21.15
2022-08-23T18:10:34.026Z,21.15
2022-08-23T18:13:02.481Z,21.37
2022-08-23T18:15:31.481Z,21.57
2022-08-23T18:18:01.121Z,21.50
2022-08-23T18:20:30.546Z,21.46
2022-08-23T18:22:59.746Z,21.62
2022-08-23T18:25:28.250Z,21.62
2022-08-23T18:28:09.906Z,21.67
2022-08-23T18:30:47.025Z,21.52
2022-08-23T18:33:16.108Z,21.49
2022-08-23T18:35:47.586Z,21.63
2022-08-23T18:38:16.504Z,21.82
2022-08-23T18:40:49.494Z,21.86
2022-08-23T18:43:22.493Z,21.87
2022-08-23T18:45:56.487Z,21.87
2022-08-23T18:48:25.409Z,21.73
2022-08-23T18:50:53.740Z,21.79
2022-08-23T18:53:22.360Z,21.89
2022-08-23T18:55:51.070Z,21.95
2022-08-23T18:58:22.913Z,21.96
2022-08-23T19:00:52.828Z,22.01
2022-08-23T19:03:21.366Z,22.11
2022-08-23T19:05:49.702Z,22.05
2022-08-23T19:08:18.287Z,22.02
2022-08-23T19:10:47.497Z,22.00
2022-08-23T19:13:16.474Z,22.04
2022-08-23T19:15:45.888Z,22.09
2022-08-23T19:18:14.695Z,22.01
2022-08-23T19:20:43.606Z,22.01
2022-08-23T19:23:11.631Z,22.05
2022-08-23T19:25:40.967Z,22.01
2022-08-23T19:28:09.078Z,21.96
2022-08-23T19:30:38.694Z,21.93
2022-08-23T19:33:09.921Z,21.94
2022-08-23T19:35:38.022Z,21.80
2022-08-23T19:38:06.422Z,21.83
2022-08-23T19:40:37.908Z,21.80
2022-08-23T19:43:06.892Z,21.81
2022-08-23T19:45:35.072Z,21.78
2022-08-23T19:48:03.788Z,21.71
2022-08-23T19:50:33.943Z,21.80
2022-08-23T19:53:03.427Z,21.81
2022-08-23T19:55:32.941Z,21.88
2022-08-23T19:58:01.588Z,21.86
2022-08-23T20:00:31.706Z,21.80
2022-08-23T20:02:59.951Z,21.48
2022-08-23T20:05:28.847Z,21.47
2022-08-23T20:07:58.447Z,21.44
2022-08-23T20:10:26.667Z,21.59
2022-08-23T20:12:54.989Z,21.64
2022-08-23T20:15:23.400Z,21.70
2022-08-23T20:17:52.439Z,21.70
2022-08-23T20:20:20.631Z,21.71
2022-08-23T20:23:06.505Z,21.74
2022-08-23T20:25:36.818Z,21.78
2022-08-23T20:28:08.478Z,21.71
2022-08-23T20:30:37.679Z,21.33
2022-08-23T20:33:06.015Z,21.41
2022-08-23T20:35:34.294Z,21.45
2022-08-23T20:38:04.597Z,21.51
2022-08-23T20:40:33.021Z,21.39
2022-08-23T20:43:02.956Z,21.47
2022-08-23T20:45:31.446Z,21.62
2022-08-23T20:47:59.694Z,21.69
2022-08-23T20:50:27.836Z,21.72
2022-08-23T20:52:56.621Z,21.75
2022-08-23T20:55:25.747Z,21.70
2022-08-23T20:57:54.358Z,21.71
2022-08-23T21:00:23.971Z,21.69
2022-08-23T21:02:52.270Z,21.66
2022-08-23T21:05:20.645Z,21.62
2022-08-23T21:07:49.178Z,21.64
2022-08-23T21:10:17.687Z,21.59
2022-08-23T21:12:45.782Z,21.58
2022-08-23T21:15:13.891Z,21.66
2022-08-23T21:17:43.427Z,21.73
2022-08-23T21:20:15.901Z,21.72
2022-08-23T21:22:44.401Z,21.72
2022-08-23T21:25:12.988Z,21.70
2022-08-23T21:27:41.515Z,21.69
2022-08-23T21:30:11.076Z,21.67
2022-08-23T21:32:39.191Z,21.66
2022-08-23T21:35:10.057Z,21.65
2022-08-23T21:37:38.436Z,21.65
2022-08-23T21:40:07.773Z,21.69
2022-08-23T21:42:36.173Z,21.67
2022-08-23T21:45:04.530Z,21.70
2022-08-23T21:47:32.814Z,21.70
2022-08-23T21:50:00.938Z,21.72
2022-08-23T21:52:30.746Z,21.68
2022-08-23T21:54:59.198Z,21.65
2022-08-23T21:57:27.809Z,21.52
2022-08-23T21:59:55.974Z,21.30
2022-08-23T22:02:24.206Z,21.13
2022-08-23T22:04:52.599Z,21.34
2022-08-23T22:07:21.061Z,21.40
2022-08-23T22:09:51.850Z,21.48
2022-08-23T22:12:24.485Z,21.48
2022-08-23T22:14:53.213Z,21.58
2022-08-23T22:17:21.753Z,21.60
2022-08-23T22:19:50.039Z,21.59
2022-08-23T22:22:18.821Z,21.60
2022-08-23T22:24:47.323Z,21.58
2022-08-23T22:27:17.132Z,21.59
2022-08-23T22:29:46.586Z,21.59
2022-08-23T22:32:15.783Z,21.61
2022-08-23T22:34:43.925Z,21.39
2022-08-23T22:37:12.329Z,21.20
2022-08-23T22:39:40.850Z,21.20
2022-08-23T22:42:09.896Z,21.25
2022-08-23T22:44:40.442Z,21.38
2022-08-23T22:47:08.634Z,21.43
2022-08-23T22:49:36.728Z,21.38
2022-08-23T22:52:06.029Z,21.29
2022-08-23T22:54:34.459Z,21.39
2022-08-23T22:57:02.677Z,21.43
2022-08-23T22:59:32.980Z,21.48
2022-08-23T23:02:04.316Z,21.47
2022-08-23T23:04:34.005Z,21.46
2022-08-23T23:07:03.057Z,21.37
2022-08-23T23:09:31.245Z,21.41
2022-08-23T23:11:59.570Z,21.32
2022-08-23T23:14:27.816Z,21.30
2022-08-23T23:16:56.223Z,21.33
2022-08-23T23:19:43.193Z,21.37
2022-08-23T23:22:14.472Z,21.28
2022-08-23T23:24:42.764Z,21.32
2022-08-23T23:27:10.912Z,21.35
2022-08-23T23:29:39.142Z,21.29
2022-08-23T23:32:07.852Z,21.31
2022-08-23T23:34:38.289Z,21.25
2022-08-23T23:37:06.491Z,21.23
2022-08-23T23:39:34.913Z,21.24
2022-08-23T23:42:03.333Z,21.25
2022-08-23T23:44:32.149Z,21.20
2022-08-23T23:47:01.760Z,21.21
2022-08-23T23:49:32.515Z,21.16
2022-08-23T23:52:04.295Z,21.13
2022-08-23T23:54:36.750Z,21.02
2022-08-23T23:57:05.096Z,21.08
2022-08-23T23:59:34.940Z,21.06
